createdAt,value
2018-08-07T00:00:42.631Z,24.3
2018-08-07T00:01:43.798Z,24.1
2018-08-07T00:02:49.028Z,24.1
2018-08-07T00:03:50.323Z,24.3
2018-08-07T00:04:51.491Z,24.4
2018-08-07T00:05:52.737Z,24.3
2018-08-07T00:06:53.961Z,24.5
2018-08-07T00:07:55.199Z,23.9
2018-08-07T00:08:59.380Z,23.8
2018-08-07T00:10:00.797Z,24.3
2018-08-07T00:11:01.982Z,24.3
2018-08-07T00:12:03.391Z,23.8
2018-08-07T00:13:04.606Z,23.9
2018-08-07T00:14:05.862Z,24
2018-08-07T00:15:09.391Z,24.1
2018-08-07T00:16:10.593Z,23.7
2018-08-07T00:17:11.782Z,23.8
2018-08-07T00:18:12.950Z,23.7
2018-08-07T00:19:14.473Z,24.1
2018-08-07T00:20:15.863Z,23.7
2018-08-07T00:21:16.997Z,23.8
2018-08-07T00:22:18.154Z,23.8
2018-08-07T00:23:19.323Z,23.7
2018-08-07T00:24:20.562Z,23.8
2018-08-07T00:25:21.703Z,24
2018-08-07T00:26:22.933Z,24.2
2018-08-07T00:27:24.106Z,24.1
2018-08-07T00:28:25.266Z,24
2018-08-07T00:29:26.459Z,24.2
2018-08-07T00:30:27.615Z,24.3
2018-08-07T00:31:28.793Z,24.5
2018-08-07T00:32:30.209Z,24.5
2018-08-07T00:33:31.853Z,24.7
2018-08-07T00:34:33.748Z,24.7
2018-08-07T00:35:35.123Z,24.8
2018-08-07T00:36:36.502Z,24.6
2018-08-07T00:37:37.904Z,24.5
2018-08-07T00:38:39.106Z,24.4
2018-08-07T00:39:40.572Z,24.4
2018-08-07T00:40:44.094Z,24.5
2018-08-07T00:41:45.260Z,24.1
2018-08-07T00:42:49.267Z,24.2
2018-08-07T00:43:50.577Z,24.2
2018-08-07T00:44:51.785Z,24.2
2018-08-07T00:45:53.189Z,23.8
2018-08-07T00:46:54.357Z,24.2
2018-08-07T00:47:55.532Z,24.1
2018-08-07T00:48:56.705Z,24.1
2018-08-07T00:49:57.881Z,24.3
2018-08-07T00:50:59.032Z,24.3
2018-08-07T00:52:00.201Z,24.5
2018-08-07T00:53:01.414Z,24.6
2018-08-07T00:54:02.808Z,24.4
2018-08-07T00:55:04.023Z,24.6
2018-08-07T00:56:05.176Z,24.2
2018-08-07T00:57:06.385Z,24.1
2018-08-07T00:58:07.620Z,24
2018-08-07T00:59:08.822Z,24.4
2018-08-07T01:00:10.626Z,24.7
2018-08-07T01:01:11.813Z,24.3
2018-08-07T01:02:13.012Z,24.3
2018-08-07T01:03:14.447Z,24.4
2018-08-07T01:04:15.935Z,24.2
2018-08-07T01:05:17.318Z,24.3
2018-08-07T01:06:23.620Z,24.3
2018-08-07T01:07:25.914Z,24.3
2018-08-07T01:08:27.196Z,24.1
2018-08-07T01:09:28.636Z,23.9
2018-08-07T01:10:29.922Z,23.7
2018-08-07T01:11:31.191Z,24.1
2018-08-07T01:12:32.374Z,24.4
2018-08-07T01:13:33.558Z,24
2018-08-07T01:14:34.762Z,24.4
2018-08-07T01:15:35.969Z,24.1
2018-08-07T01:16:37.695Z,23.8
2018-08-07T01:17:39.282Z,24
2018-08-07T01:18:40.451Z,24.2
2018-08-07T01:19:41.760Z,24
2018-08-07T01:20:42.969Z,24.1
2018-08-07T01:21:44.130Z,24
2018-08-07T01:22:45.292Z,23.7
2018-08-07T01:23:46.447Z,23.6
2018-08-07T01:24:47.715Z,23.8
2018-08-07T01:25:48.917Z,23.7
2018-08-07T01:26:50.208Z,23.7
2018-08-07T01:27:52.665Z,23.8
2018-08-07T01:28:53.873Z,23.9
2018-08-07T01:29:55.052Z,24.1
2018-08-07T01:30:56.237Z,24.3
2018-08-07T01:31:57.407Z,24.2
2018-08-07T01:32:58.751Z,23.7
2018-08-07T01:33:59.930Z,23.2
2018-08-07T01:35:01.120Z,23.8
2018-08-07T01:36:02.382Z,23.8
2018-08-07T01:37:03.946Z,23.9
2018-08-07T01:38:05.137Z,23.8
2018-08-07T01:39:06.303Z,23.4
2018-08-07T01:40:07.476Z,23.2
2018-08-07T01:41:08.827Z,22.9
2018-08-07T01:42:10.429Z,23.1
2018-08-07T01:43:12.051Z,23.1
2018-08-07T01:44:16.592Z,23
2018-08-07T01:45:22.487Z,23.3
2018-08-07T01:46:24.588Z,23.4
2018-08-07T01:47:25.975Z,23.5
2018-08-07T01:48:27.155Z,23.3
2018-08-07T01:49:28.324Z,23.3
2018-08-07T01:50:29.471Z,23
2018-08-07T01:51:30.731Z,22.9
2018-08-07T01:52:32.378Z,22.7
2018-08-07T01:53:36.570Z,22.6
2018-08-07T01:54:37.718Z,22.9
2018-08-07T01:55:38.970Z,23.4
2018-08-07T01:56:40.206Z,23.6
2018-08-07T01:57:41.458Z,23.5
2018-08-07T01:58:42.630Z,23.1
2018-08-07T01:59:43.794Z,22.7
2018-08-07T02:00:44.963Z,22.9
2018-08-07T02:01:46.198Z,22.8
2018-08-07T02:02:47.582Z,22.7
2018-08-07T02:03:48.746Z,22.9
2018-08-07T02:04:50.006Z,23
2018-08-07T02:05:51.177Z,23.1
2018-08-07T02:06:52.622Z,23.2
2018-08-07T02:07:54.522Z,23.1
2018-08-07T02:08:55.853Z,22.8
2018-08-07T02:09:57.250Z,22.9
2018-08-07T02:10:58.658Z,23.1
2018-08-07T02:12:00.054Z,23.4
2018-08-07T02:13:01.252Z,23.7
2018-08-07T02:14:02.443Z,23.8
2018-08-07T02:15:03.601Z,23.6
2018-08-07T02:16:04.769Z,23.8
2018-08-07T02:17:05.989Z,23.9
2018-08-07T02:18:07.135Z,23.7
2018-08-07T02:19:08.340Z,23.3
2018-08-07T02:20:09.516Z,23.3
2018-08-07T02:21:10.673Z,23.1
2018-08-07T02:22:11.984Z,23.2
2018-08-07T02:23:13.189Z,23.4
2018-08-07T02:24:14.538Z,23.2
2018-08-07T02:25:15.692Z,23.2
2018-08-07T02:26:17.078Z,23.1
2018-08-07T02:27:18.314Z,23.3
2018-08-07T02:28:22.684Z,23.5
2018-08-07T02:29:24.463Z,23.3
2018-08-07T02:30:27.072Z,23.1
2018-08-07T02:31:28.736Z,22.9
2018-08-07T02:32:30.026Z,22.7
2018-08-07T02:33:31.222Z,22.6
2018-08-07T02:34:32.463Z,22.8
2018-08-07T02:35:33.618Z,22.9
2018-08-07T02:36:34.794Z,22.8
2018-08-07T02:37:36.005Z,23
2018-08-07T02:38:37.378Z,23.1
2018-08-07T02:39:38.706Z,23
2018-08-07T02:40:39.904Z,23
2018-08-07T02:41:41.242Z,22.8
2018-08-07T02:42:42.478Z,22.8
2018-08-07T02:43:43.656Z,22.6
2018-08-07T02:44:44.855Z,23
2018-08-07T02:45:46.049Z,23.3
2018-08-07T02:46:47.364Z,23.5
2018-08-07T02:47:48.795Z,23.7
2018-08-07T02:48:50.016Z,23.5
2018-08-07T02:49:51.202Z,23.6
2018-08-07T02:50:52.382Z,23.7
2018-08-07T02:51:53.541Z,23.5
2018-08-07T02:52:54.751Z,23.3
2018-08-07T02:53:55.918Z,23.1
2018-08-07T02:54:57.094Z,23.2
2018-08-07T02:55:58.252Z,23
2018-08-07T02:56:59.402Z,22.7
2018-08-07T02:58:00.695Z,22.8
2018-08-07T02:59:01.886Z,23.1
2018-08-07T03:00:03.444Z,22.9
2018-08-07T03:01:04.978Z,22.7
2018-08-07T03:02:06.169Z,23.1
2018-08-07T03:03:07.460Z,23
2018-08-07T03:04:08.637Z,23
2018-08-07T03:05:09.839Z,22.9
2018-08-07T03:06:11.067Z,23.1
2018-08-07T03:07:12.246Z,23.2
2018-08-07T03:08:13.577Z,23.1
2018-08-07T03:09:14.882Z,22.9
2018-08-07T03:10:16.052Z,23
2018-08-07T03:11:17.251Z,22.8
2018-08-07T03:12:18.439Z,22.6
2018-08-07T03:13:19.737Z,22.8
2018-08-07T03:14:20.934Z,22.8
2018-08-07T03:15:22.099Z,22.7
2018-08-07T03:16:23.302Z,22.6
2018-08-07T03:17:24.482Z,22.6
2018-08-07T03:18:25.799Z,23
2018-08-07T03:19:27.053Z,23
2018-08-07T03:20:28.685Z,23.1
2018-08-07T03:21:31.841Z,22.9
2018-08-07T03:22:33.019Z,22.7
2018-08-07T03:23:34.218Z,22.6
2018-08-07T03:24:35.406Z,22.7
2018-08-07T03:25:36.605Z,22.7
2018-08-07T03:26:37.778Z,23
2018-08-07T03:27:39.004Z,22.9
2018-08-07T03:28:40.226Z,22.8
2018-08-07T03:29:41.438Z,22.7
2018-08-07T03:30:42.601Z,22.6
2018-08-07T03:31:43.787Z,22.6
2018-08-07T03:32:45.039Z,22.6
2018-08-07T03:33:46.234Z,22.7
2018-08-07T03:34:47.434Z,22.7
2018-08-07T03:35:48.584Z,22.6
2018-08-07T03:36:49.757Z,22.7
2018-08-07T03:37:50.984Z,22.8
2018-08-07T03:38:52.207Z,22.6
2018-08-07T03:39:53.360Z,22.6
2018-08-07T03:40:54.543Z,22.6
2018-08-07T03:41:55.722Z,22.5
2018-08-07T03:42:56.889Z,22.6
2018-08-07T03:43:58.159Z,22.4
2018-08-07T03:44:59.329Z,22.6
2018-08-07T03:46:00.507Z,22.5
2018-08-07T03:47:01.719Z,22.4
2018-08-07T03:48:02.922Z,22.5
2018-08-07T03:49:04.183Z,22.5
2018-08-07T03:50:05.410Z,22.4
2018-08-07T03:51:09.605Z,22.4
2018-08-07T03:52:10.788Z,22.4
2018-08-07T03:53:12.008Z,22.3
2018-08-07T03:54:13.204Z,22.5
2018-08-07T03:55:14.777Z,22.4
2018-08-07T03:56:16.058Z,22.5
2018-08-07T03:57:17.222Z,22.4
2018-08-07T03:58:18.707Z,22.6
2018-08-07T03:59:19.933Z,22.6
2018-08-07T04:00:21.104Z,22.7
2018-08-07T04:01:22.278Z,22.7
2018-08-07T04:02:23.484Z,22.6
2018-08-07T04:03:27.038Z,22.7
2018-08-07T04:04:28.232Z,22.6
2018-08-07T04:05:29.397Z,22.4
2018-08-07T04:06:30.553Z,22.3
2018-08-07T04:07:31.733Z,22.1
2018-08-07T04:08:33.046Z,22.1
2018-08-07T04:09:34.247Z,22.1
2018-08-07T04:10:35.416Z,22.3
2018-08-07T04:11:36.703Z,22.1
2018-08-07T04:12:37.802Z,22.3
2018-08-07T04:13:39.013Z,22.3
2018-08-07T04:14:40.535Z,22.7
2018-08-07T04:15:41.699Z,22.9
2018-08-07T04:16:46.025Z,22.3
2018-08-07T04:17:49.661Z,22.6
2018-08-07T04:18:50.853Z,22.3
2018-08-07T04:19:52.087Z,21.9
2018-08-07T04:20:53.335Z,22.4
2018-08-07T04:21:54.611Z,22
2018-08-07T04:22:55.789Z,22.2
2018-08-07T04:23:57.030Z,22.5
2018-08-07T04:24:58.253Z,22.6
2018-08-07T04:25:59.455Z,22.7
2018-08-07T04:27:01.039Z,22.9
2018-08-07T04:28:02.323Z,22.6
2018-08-07T04:29:03.685Z,22.4
2018-08-07T04:30:04.907Z,22.4
2018-08-07T04:31:06.129Z,22.6
2018-08-07T04:32:07.312Z,22.9
2018-08-07T04:33:08.561Z,22.3
2018-08-07T04:34:09.730Z,22.5
2018-08-07T04:35:10.985Z,22.7
2018-08-07T04:36:12.281Z,22.6
2018-08-07T04:37:19.542Z,22.8
2018-08-07T04:38:20.717Z,22.8
2018-08-07T04:39:21.998Z,22.8
2018-08-07T04:40:23.248Z,22.9
2018-08-07T04:41:24.856Z,22.8
2018-08-07T04:42:26.441Z,22.9
2018-08-07T04:43:27.618Z,23.1
2018-08-07T04:44:31.190Z,23
2018-08-07T04:45:32.496Z,23.1
2018-08-07T04:46:33.656Z,23.2
2018-08-07T04:47:34.838Z,23.3
2018-08-07T04:48:36.354Z,23.3
2018-08-07T04:49:37.541Z,23.4
2018-08-07T04:50:38.778Z,23.5
2018-08-07T04:51:39.991Z,23.5
2018-08-07T04:52:41.152Z,23.6
2018-08-07T04:53:42.692Z,23.7
2018-08-07T04:54:44.272Z,23.7
2018-08-07T04:55:45.487Z,23.8
2018-08-07T04:56:46.756Z,23.8
2018-08-07T04:57:48.188Z,23.9
2018-08-07T04:58:49.416Z,23.9
2018-08-07T04:59:50.958Z,23.9
2018-08-07T05:01:00.234Z,24.1
2018-08-07T05:02:04.150Z,24
2018-08-07T05:03:05.539Z,24.1
2018-08-07T05:04:06.826Z,24.3
2018-08-07T05:05:08.033Z,24.3
2018-08-07T05:06:09.308Z,24.4
2018-08-07T05:07:10.542Z,24.5
2018-08-07T05:08:11.797Z,24.5
2018-08-07T05:09:13.063Z,24.6
2018-08-07T05:10:14.356Z,24.7
2018-08-07T05:11:18.676Z,25
2018-08-07T05:12:23.698Z,25.3
2018-08-07T05:13:25.163Z,25.1
2018-08-07T05:14:26.690Z,25.5
2018-08-07T05:15:28.144Z,25.2
2018-08-07T05:16:29.444Z,25.6
2018-08-07T05:17:30.672Z,25.3
2018-08-07T05:18:34.104Z,25.5
2018-08-07T05:19:35.913Z,25.8
2018-08-07T05:20:37.083Z,25.5
2018-08-07T05:21:38.307Z,26
2018-08-07T05:22:39.527Z,25.7
2018-08-07T05:23:40.809Z,25.6
2018-08-07T05:24:41.977Z,25.5
2018-08-07T05:25:45.410Z,26
2018-08-07T05:26:46.702Z,25.8
2018-08-07T05:27:47.864Z,25.7
2018-08-07T05:28:49.101Z,25.7
2018-08-07T05:29:50.315Z,25.7
2018-08-07T05:30:51.473Z,25.8
2018-08-07T05:31:53.352Z,26
2018-08-07T05:32:54.730Z,26
2018-08-07T05:33:56.234Z,26
2018-08-07T05:34:57.483Z,26.2
2018-08-07T05:35:58.725Z,26.1
2018-08-07T05:37:00.020Z,26
2018-08-07T05:38:01.235Z,25.9
2018-08-07T05:39:02.424Z,25.9
2018-08-07T05:40:04.177Z,25.9
2018-08-07T05:41:05.383Z,26
2018-08-07T05:42:06.768Z,26.4
2018-08-07T05:43:09.909Z,26.5
2018-08-07T05:44:11.174Z,26.4
2018-08-07T05:45:12.390Z,26.4
2018-08-07T05:46:13.669Z,26.6
2018-08-07T05:47:16.736Z,26.7
2018-08-07T05:48:18.063Z,27
2018-08-07T05:49:19.270Z,27.1
2018-08-07T05:50:20.619Z,26.9
2018-08-07T05:51:22.039Z,26.8
2018-08-07T05:52:24.206Z,26.8
2018-08-07T05:53:25.427Z,26.8
2018-08-07T05:54:26.717Z,26.7
2018-08-07T05:55:28.208Z,26.7
2018-08-07T05:56:29.482Z,26.7
2018-08-07T05:57:30.690Z,26.8
2018-08-07T05:58:32.032Z,26.9
2018-08-07T05:59:33.375Z,27
2018-08-07T06:00:34.549Z,27.1
2018-08-07T06:01:35.741Z,27.1
2018-08-07T06:02:37.424Z,27
2018-08-07T06:03:39.844Z,27.1
2018-08-07T06:04:41.003Z,27.2
2018-08-07T06:05:42.163Z,27.2
2018-08-07T06:06:43.571Z,27.2
2018-08-07T06:07:44.897Z,27.2
2018-08-07T06:08:46.458Z,27.2
2018-08-07T06:09:47.694Z,27.2
2018-08-07T06:10:49.047Z,27.3
2018-08-07T06:11:50.199Z,27.3
2018-08-07T06:12:51.490Z,28.5
2018-08-07T06:13:52.659Z,28.1
2018-08-07T06:14:53.910Z,28.3
2018-08-07T06:15:55.070Z,27.8
2018-08-07T06:16:56.552Z,27.8
2018-08-07T06:17:58.271Z,28.1
2018-08-07T06:18:59.489Z,27.8
2018-08-07T06:20:00.852Z,27.9
2018-08-07T06:21:02.154Z,28.3
2018-08-07T06:22:03.422Z,28.3
2018-08-07T06:23:05.006Z,27.9
2018-08-07T06:24:06.285Z,28.1
2018-08-07T06:25:07.502Z,28
2018-08-07T06:26:08.741Z,28.5
2018-08-07T06:27:09.947Z,28.1
2018-08-07T06:28:11.193Z,28
2018-08-07T06:29:12.368Z,28.1
2018-08-07T06:30:13.708Z,28
2018-08-07T06:31:18.177Z,27.9
2018-08-07T06:32:19.981Z,28
2018-08-07T06:33:21.281Z,27.9
2018-08-07T06:34:22.476Z,27.9
2018-08-07T06:35:23.711Z,28
2018-08-07T06:36:24.958Z,28.2
2018-08-07T06:37:26.388Z,28.5
2018-08-07T06:38:27.830Z,28.4
2018-08-07T06:39:29.254Z,28.4
2018-08-07T06:40:30.519Z,28.4
2018-08-07T06:41:31.739Z,28.5
2018-08-07T06:42:32.911Z,28.6
2018-08-07T06:43:34.130Z,28.6
2018-08-07T06:44:35.302Z,28.5
2018-08-07T06:45:36.505Z,28.3
2018-08-07T06:46:37.725Z,28.4
2018-08-07T06:47:39.010Z,28.3
2018-08-07T06:48:40.280Z,28.3
2018-08-07T06:49:41.478Z,28.5
2018-08-07T06:50:42.681Z,28.6
2018-08-07T06:51:44.011Z,28.5
2018-08-07T06:52:45.225Z,28.4
2018-08-07T06:53:46.503Z,28.5
2018-08-07T06:54:47.667Z,28.7
2018-08-07T06:55:51.287Z,29
2018-08-07T06:56:53.725Z,30.8
2018-08-07T06:57:55.019Z,29.9
2018-08-07T06:58:56.291Z,29.9
2018-08-07T06:59:57.538Z,30.9
2018-08-07T07:00:58.935Z,31.7
2018-08-07T07:02:03.372Z,31
2018-08-07T07:03:04.630Z,30
2018-08-07T07:04:05.925Z,29.6
2018-08-07T07:05:07.167Z,29.6
2018-08-07T07:06:08.823Z,31.4
2018-08-07T07:07:10.074Z,31.9
2018-08-07T07:08:11.514Z,30.9
2018-08-07T07:09:13.119Z,32.1
2018-08-07T07:10:14.347Z,32.5
2018-08-07T07:11:15.688Z,32.5
2018-08-07T07:12:19.764Z,30.9
2018-08-07T07:13:26.511Z,30.2
2018-08-07T07:14:27.814Z,30
2018-08-07T07:15:28.978Z,30
2018-08-07T07:16:30.186Z,30.1
2018-08-07T07:17:35.639Z,30
2018-08-07T07:18:40.037Z,30.2
2018-08-07T07:19:41.505Z,30.3
2018-08-07T07:20:42.743Z,30.6
2018-08-07T07:21:46.035Z,30.5
2018-08-07T07:22:47.989Z,30.4
2018-08-07T07:23:49.193Z,30.5
2018-08-07T07:24:52.883Z,30.7
2018-08-07T07:25:54.717Z,30.6
2018-08-07T07:26:57.291Z,31
2018-08-07T07:27:58.523Z,32.2
2018-08-07T07:28:59.713Z,31.5
2018-08-07T07:30:04.220Z,31.2
2018-08-07T07:31:11.665Z,31.9
2018-08-07T07:32:15.078Z,31.2
2018-08-07T07:33:19.234Z,31
2018-08-07T07:34:20.479Z,31
2018-08-07T07:35:21.758Z,31
2018-08-07T07:36:23.061Z,31
2018-08-07T07:37:24.470Z,31
2018-08-07T07:38:26.436Z,32
2018-08-07T07:39:30.192Z,32.1
2018-08-07T07:40:31.468Z,31.7
2018-08-07T07:41:32.673Z,31.5
2018-08-07T07:42:34.090Z,31.4
2018-08-07T07:43:35.676Z,31.5
2018-08-07T07:44:37.113Z,31.6
2018-08-07T07:45:38.342Z,31.9
2018-08-07T07:46:45.457Z,31.7
2018-08-07T07:47:47.356Z,31.7
2018-08-07T07:48:50.678Z,31.7
2018-08-07T07:49:51.909Z,31.6
2018-08-07T07:50:53.160Z,31.5
2018-08-07T07:51:54.695Z,31.6
2018-08-07T07:52:56.242Z,31.6
2018-08-07T07:53:58.670Z,31.8
2018-08-07T07:54:59.825Z,31.9
2018-08-07T07:56:01.095Z,32
2018-08-07T07:57:02.576Z,32.1
2018-08-07T07:58:19.151Z,32.2
2018-08-07T07:59:20.602Z,32.3
2018-08-07T08:00:21.782Z,32.4
2018-08-07T08:01:24.721Z,32.4
2018-08-07T08:02:26.604Z,32.4
2018-08-07T08:03:28.605Z,32.3
2018-08-07T08:04:30.173Z,32.4
2018-08-07T08:05:31.998Z,32.4
2018-08-07T08:06:33.243Z,32.4
2018-08-07T08:07:35.703Z,32.7
2018-08-07T08:08:36.928Z,32.5
2018-08-07T08:09:40.309Z,32.3
2018-08-07T08:10:41.543Z,32.4
2018-08-07T08:11:42.795Z,32.5
2018-08-07T08:12:46.269Z,32.7
2018-08-07T08:13:47.570Z,32.7
2018-08-07T08:14:49.274Z,32.9
2018-08-07T08:15:50.729Z,35.3
2018-08-07T08:16:51.947Z,34.5
2018-08-07T08:17:53.228Z,33.9
2018-08-07T08:18:54.418Z,33.5
2018-08-07T08:19:55.737Z,33.5
2018-08-07T08:20:56.925Z,33.6
2018-08-07T08:22:01.245Z,33.1
2018-08-07T08:23:02.806Z,32.9
2018-08-07T08:24:03.989Z,33.2
2018-08-07T08:25:05.372Z,33.2
2018-08-07T08:26:09.108Z,33
2018-08-07T08:27:11.652Z,33.1
2018-08-07T08:28:13.954Z,33
2018-08-07T08:29:18.410Z,32.9
2018-08-07T08:30:19.709Z,33.4
2018-08-07T08:31:21.841Z,33.1
2018-08-07T08:32:23.079Z,33.2
2018-08-07T08:33:24.313Z,33.2
2018-08-07T08:34:25.806Z,33.5
2018-08-07T08:35:27.158Z,33.3
2018-08-07T08:36:28.530Z,33.4
2018-08-07T08:37:29.818Z,33.5
2018-08-07T08:38:31.087Z,33.3
2018-08-07T08:39:32.314Z,33.4
2018-08-07T08:40:33.529Z,33.5
2018-08-07T08:41:34.823Z,33.6
2018-08-07T08:42:41.498Z,33.6
2018-08-07T08:43:45.028Z,34.3
2018-08-07T08:44:46.287Z,34.2
2018-08-07T08:45:50.246Z,33.9
2018-08-07T08:46:51.439Z,33.8
2018-08-07T08:47:55.332Z,33.9
2018-08-07T08:48:59.737Z,34.2
2018-08-07T08:50:03.305Z,34
2018-08-07T08:51:10.305Z,33.7
2018-08-07T08:52:21.526Z,33.8
2018-08-07T08:53:28.328Z,33.7
2018-08-07T08:54:30.674Z,33.6
2018-08-07T08:55:35.305Z,33.5
2018-08-07T08:56:39.390Z,34.1
2018-08-07T08:57:40.763Z,33.9
2018-08-07T08:58:42.562Z,33.7
2018-08-07T08:59:43.969Z,34
2018-08-07T09:00:45.770Z,34.2
2018-08-07T09:01:49.859Z,33.8
2018-08-07T09:02:51.423Z,33.8
2018-08-07T09:03:53.168Z,33.8
2018-08-07T09:05:12.643Z,33.7
2018-08-07T09:06:27.419Z,33.6
2018-08-07T09:07:28.697Z,34.3
2018-08-07T09:08:31.191Z,33.9
2018-08-07T09:09:32.697Z,33.7
2018-08-07T09:10:35.267Z,34.2
2018-08-07T09:11:36.968Z,33.9
2018-08-07T09:12:38.296Z,33.7
2018-08-07T09:13:39.820Z,33.6
2018-08-07T09:14:41.238Z,33.7
2018-08-07T09:15:42.542Z,33.6
2018-08-07T09:16:43.897Z,33.7
2018-08-07T09:17:45.459Z,33.7
2018-08-07T09:18:49.876Z,33.5
2018-08-07T09:19:51.443Z,33.5
2018-08-07T09:20:52.733Z,33.6
2018-08-07T09:21:54.054Z,33.6
2018-08-07T09:22:59.180Z,33.3
2018-08-07T09:24:01.021Z,33.3
2018-08-07T09:25:02.694Z,33.4
2018-08-07T09:26:03.988Z,33.4
2018-08-07T09:27:06.038Z,33.5
2018-08-07T09:28:10.863Z,33.5
2018-08-07T09:29:12.437Z,33.5
2018-08-07T09:30:17.614Z,33.6
2018-08-07T09:31:19.223Z,33.7
2018-08-07T09:32:20.560Z,33.8
2018-08-07T09:33:24.310Z,33.6
2018-08-07T09:34:25.693Z,33.7
2018-08-07T09:35:29.766Z,33.8
2018-08-07T09:36:31.066Z,34
2018-08-07T09:37:32.410Z,34
2018-08-07T09:38:33.706Z,33.8
2018-08-07T09:39:35.628Z,33.4
2018-08-07T09:40:37.833Z,33.5
2018-08-07T09:41:39.769Z,33.6
2018-08-07T09:42:41.152Z,33.7
2018-08-07T09:43:42.721Z,34
2018-08-07T09:44:45.582Z,34.1
2018-08-07T09:45:47.405Z,34.3
2018-08-07T09:46:48.754Z,34.1
2018-08-07T09:47:50.549Z,34
2018-08-07T09:48:55.655Z,33.5
2018-08-07T09:49:57.058Z,33.9
2018-08-07T09:50:58.428Z,33.8
2018-08-07T09:51:59.870Z,33.7
2018-08-07T09:53:01.267Z,33.2
2018-08-07T09:54:02.802Z,33.5
2018-08-07T09:55:04.702Z,33.6
2018-08-07T09:56:08.895Z,33.7
2018-08-07T09:57:10.408Z,33.7
2018-08-07T09:58:11.931Z,33.6
2018-08-07T09:59:13.365Z,33.9
2018-08-07T10:00:14.811Z,33.9
2018-08-07T10:01:19.241Z,33.8
2018-08-07T10:02:20.473Z,33.6
2018-08-07T10:03:21.690Z,33.6
2018-08-07T10:04:22.847Z,33.7
2018-08-07T10:05:29.725Z,33.8
2018-08-07T10:06:30.827Z,33.8
2018-08-07T10:07:34.631Z,33.8
2018-08-07T10:08:36.268Z,33.9
2018-08-07T10:09:37.655Z,33.8
2018-08-07T10:10:38.904Z,33.8
2018-08-07T10:11:40.219Z,33.6
2018-08-07T10:12:41.938Z,33.5
2018-08-07T10:13:43.141Z,33.3
2018-08-07T10:14:46.086Z,33.3
2018-08-07T10:15:48.166Z,33.3
2018-08-07T10:16:54.311Z,33.1
2018-08-07T10:17:55.731Z,33.1
2018-08-07T10:18:56.984Z,33.3
2018-08-07T10:19:58.158Z,33.2
2018-08-07T10:20:59.551Z,33.4
2018-08-07T10:22:01.023Z,33.5
2018-08-07T10:23:02.395Z,33.6
2018-08-07T10:24:03.868Z,33.3
2018-08-07T10:25:05.492Z,33.4
2018-08-07T10:26:06.802Z,33.3
2018-08-07T10:27:08.094Z,33.4
2018-08-07T10:28:10.288Z,33.3
2018-08-07T10:29:11.508Z,33.2
2018-08-07T10:30:15.863Z,33
2018-08-07T10:31:17.098Z,33.2
2018-08-07T10:32:24.514Z,33.4
2018-08-07T10:33:25.915Z,33.3
2018-08-07T10:34:31.323Z,33.4
2018-08-07T10:35:32.785Z,33
2018-08-07T10:36:37.265Z,33.1
2018-08-07T10:37:38.730Z,33.4
2018-08-07T10:38:40.497Z,33.4
2018-08-07T10:39:44.493Z,33
2018-08-07T10:40:46.021Z,33.1
2018-08-07T10:41:47.414Z,33.2
2018-08-07T10:42:48.795Z,33.3
2018-08-07T10:43:53.411Z,33.2
2018-08-07T10:44:59.566Z,33.2
2018-08-07T10:46:03.448Z,33
2018-08-07T10:47:15.768Z,33.1
2018-08-07T10:48:19.294Z,33
2018-08-07T10:49:20.801Z,33.1
2018-08-07T10:50:25.029Z,33.2
2018-08-07T10:51:26.418Z,33.2
2018-08-07T10:52:33.274Z,33.2
2018-08-07T10:53:34.572Z,33.2
2018-08-07T10:54:37.216Z,33.2
2018-08-07T10:55:43.325Z,33.3
2018-08-07T10:56:49.579Z,33.5
2018-08-07T10:57:53.486Z,33.5
2018-08-07T10:58:54.754Z,33.2
2018-08-07T10:59:59.143Z,33.3
2018-08-07T11:01:06.271Z,33.3
2018-08-07T11:02:14.739Z,33.2
2018-08-07T11:03:17.212Z,33.3
2018-08-07T11:04:18.843Z,33.2
2018-08-07T11:05:24.034Z,33.3
2018-08-07T11:06:25.528Z,33.2
2018-08-07T11:07:26.983Z,33.1
2018-08-07T11:08:28.494Z,33.1
2018-08-07T11:09:32.328Z,33.1
2018-08-07T11:10:33.780Z,33.2
2018-08-07T11:11:43.797Z,33.3
2018-08-07T11:12:51.909Z,33.4
2018-08-07T11:13:59.311Z,33.3
2018-08-07T11:15:00.838Z,33.2
2018-08-07T11:16:04.380Z,33.2
2018-08-07T11:17:06.911Z,33.2
2018-08-07T11:18:12.880Z,33.2
2018-08-07T11:19:21.538Z,33.1
2018-08-07T11:20:22.995Z,33.2
2018-08-07T11:21:24.154Z,33.2
2018-08-07T11:22:34.587Z,33.1
2018-08-07T11:23:35.842Z,33
2018-08-07T11:24:39.680Z,32.9
2018-08-07T11:25:41.934Z,32.9
2018-08-07T11:26:45.602Z,32.9
2018-08-07T11:27:48.622Z,33
2018-08-07T11:28:52.164Z,33
2018-08-07T11:29:53.425Z,33
2018-08-07T11:30:55.369Z,32.9
2018-08-07T11:31:56.948Z,32.8
2018-08-07T11:32:58.649Z,32.9
2018-08-07T11:33:59.851Z,33.1
2018-08-07T11:35:01.300Z,33.2
2018-08-07T11:36:02.629Z,33.1
2018-08-07T11:37:04.258Z,33.1
2018-08-07T11:38:06.973Z,33
2018-08-07T11:39:08.207Z,33
2018-08-07T11:40:15.631Z,33.1
2018-08-07T11:41:16.908Z,33.3
2018-08-07T11:42:18.418Z,33.4
2018-08-07T11:43:19.636Z,33.5
2018-08-07T11:44:22.992Z,33.4
2018-08-07T11:45:26.682Z,33.2
2018-08-07T11:46:33.073Z,33.2
2018-08-07T11:47:34.294Z,33.3
2018-08-07T11:48:40.555Z,33.3
2018-08-07T11:49:41.886Z,33.4
2018-08-07T11:50:43.119Z,33.3
2018-08-07T11:51:44.455Z,33.4
2018-08-07T11:52:45.701Z,33.5
2018-08-07T11:53:46.977Z,33.5
2018-08-07T11:54:48.199Z,33.4
2018-08-07T11:55:49.410Z,33.2
2018-08-07T11:56:54.975Z,33
2018-08-07T11:58:03.166Z,33.1
2018-08-07T11:59:06.359Z,33.1
2018-08-07T12:00:09.168Z,33
2018-08-07T12:01:10.452Z,33.2
2018-08-07T12:02:13.419Z,33.2
2018-08-07T12:03:15.034Z,33.2
2018-08-07T12:04:18.520Z,33.3
2018-08-07T12:05:27.543Z,33.4
2018-08-07T12:06:28.749Z,33.4
2018-08-07T12:07:32.716Z,33.5
2018-08-07T12:08:34.631Z,33.5
2018-08-07T12:09:41.293Z,33.6
2018-08-07T12:10:43.962Z,33.6
2018-08-07T12:11:47.740Z,33.6
2018-08-07T12:12:51.725Z,33.4
2018-08-07T12:13:53.057Z,33.3
2018-08-07T12:14:54.322Z,33.1
2018-08-07T12:15:58.311Z,33.1
2018-08-07T12:16:59.860Z,33
2018-08-07T12:18:01.452Z,33
2018-08-07T12:19:02.800Z,32.8
2018-08-07T12:20:06.205Z,33.1
2018-08-07T12:21:07.800Z,33.3
2018-08-07T12:22:08.963Z,33.3
2018-08-07T12:23:10.420Z,33.5
2018-08-07T12:24:11.849Z,33.4
2018-08-07T12:25:13.095Z,33.3
2018-08-07T12:26:14.601Z,33.2
2018-08-07T12:27:23.504Z,33.1
2018-08-07T12:28:26.324Z,33
2018-08-07T12:29:27.805Z,33.2
2018-08-07T12:30:31.213Z,33.3
2018-08-07T12:31:35.413Z,33.3
2018-08-07T12:32:36.746Z,33.3
2018-08-07T12:33:40.278Z,33.2
2018-08-07T12:34:44.786Z,33.3
2018-08-07T12:35:46.078Z,33.3
2018-08-07T12:36:58.008Z,33.4
2018-08-07T12:37:59.295Z,33.4
2018-08-07T12:39:00.892Z,33.3
2018-08-07T12:40:02.290Z,33.5
2018-08-07T12:41:03.699Z,33.5
2018-08-07T12:42:04.946Z,33.3
2018-08-07T12:43:06.215Z,33.4
2018-08-07T12:44:07.603Z,33.5
2018-08-07T12:45:08.820Z,33.5
2018-08-07T12:46:10.361Z,33.5
2018-08-07T12:47:12.578Z,33.5
2018-08-07T12:48:14.516Z,33.6
2018-08-07T12:49:15.802Z,33.4
2018-08-07T12:50:19.450Z,33.3
2018-08-07T12:51:21.635Z,33.5
2018-08-07T12:52:23.370Z,33.5
2018-08-07T12:53:24.722Z,33.4
2018-08-07T12:54:25.986Z,33.4
2018-08-07T12:55:27.295Z,33.4
2018-08-07T12:56:30.862Z,33.1
2018-08-07T12:57:32.118Z,33
2018-08-07T12:58:33.321Z,33.3
2018-08-07T12:59:34.880Z,33.6
2018-08-07T13:00:36.070Z,33.5
2018-08-07T13:01:37.368Z,33.4
2018-08-07T13:02:38.714Z,33.2
2018-08-07T13:03:39.973Z,33.4
2018-08-07T13:04:41.362Z,33.5
2018-08-07T13:05:42.618Z,33.5
2018-08-07T13:06:44.298Z,33.4
2018-08-07T13:07:45.970Z,33.3
2018-08-07T13:08:47.286Z,33.2
2018-08-07T13:09:50.629Z,33.2
2018-08-07T13:10:51.895Z,33.3
2018-08-07T13:11:53.098Z,33.4
2018-08-07T13:12:54.348Z,33.3
2018-08-07T13:14:00.663Z,33.2
2018-08-07T13:15:01.906Z,33.1
2018-08-07T13:16:03.169Z,33.2
2018-08-07T13:17:04.413Z,33.2
2018-08-07T13:18:05.849Z,33.3
2018-08-07T13:19:10.939Z,33.4
2018-08-07T13:20:12.279Z,33.5
2018-08-07T13:21:13.533Z,33.4
2018-08-07T13:22:15.267Z,33.5
2018-08-07T13:23:16.436Z,33.6
2018-08-07T13:24:17.791Z,33.7
2018-08-07T13:25:19.741Z,33.7
2018-08-07T13:26:22.574Z,33.8
2018-08-07T13:27:23.819Z,33.6
2018-08-07T13:28:32.285Z,33.5
2018-08-07T13:29:34.879Z,33.7
2018-08-07T13:30:36.169Z,33.8
2018-08-07T13:31:37.725Z,33.9
2018-08-07T13:32:39.057Z,33.8
2018-08-07T13:33:40.375Z,33.7
2018-08-07T13:34:42.711Z,33.8
2018-08-07T13:35:46.589Z,33.7
2018-08-07T13:36:47.925Z,33.6
2018-08-07T13:37:49.450Z,33.5
2018-08-07T13:38:52.254Z,33.4
2018-08-07T13:39:53.706Z,33.5
2018-08-07T13:40:58.115Z,33.8
2018-08-07T13:41:59.591Z,33.9
2018-08-07T13:43:01.099Z,33.8
2018-08-07T13:44:02.657Z,33.6
2018-08-07T13:45:06.392Z,33.5
2018-08-07T13:46:07.661Z,33.4
2018-08-07T13:47:08.959Z,33.5
2018-08-07T13:48:10.278Z,33.6
2018-08-07T13:49:12.676Z,33.5
2018-08-07T13:50:13.844Z,33.4
2018-08-07T13:51:15.160Z,33.3